Yarmouth Port, MA

01:49 EST le 28 novembre 2014 (GMT -0500)
Chatham Municipal | Change Station
CLOSE
Current Station
Aéroport
Location: Chatham,
Altitude: 66 ft
Stations météo à proximité

Alt. 66 ft 41.69 °N, 69.99 °W | Updated 38 minutes ago

Neige
Neige
36 ° F
Paraît 36 ° F
N
0
Vent Variable Vent de Nord

Aujourd'hui
Haut(e) -- | Bas -- ° F
--% Risque de précip.
Hier
Haut(e) -- | Bas -- ° F
Precip. -- pouce
6:45 AM 4:12 PM
Lune montante, 37% visible
Pression 29.94 pouce
Visibilité 8.0 Miles terrestres
Nuages Nuages épars 1800 ft
Couvert 3200 ft
Point de rosée 34 ° F
Humidité 93%
Précipitations 0.02 pouce
Profondeur de la couche neigeuse Non disponible.
UV 0 sur 12
Pollen .10 sur 12
Qualité de l'air Non disponible.
Flu Activity Non disponible.
SPECI KCQX 280611Z AUTO 00000KT 8SM -RA SCT018 OVC032 02/01 A2994 RMK AO2 P0001 T00220011 $

More Conditions Fewer Conditions

Pression 29.94 pouce
Visibilité 8.0 Miles terrestres
Nuages Nuages épars 1800 ft
Couvert 3200 ft
Point de rosée 34 ° F
Humidité 93%
Précipitations 0.02 pouce
Profondeur de la couche neigeuse Non disponible.
UV 0 sur 12
Pollen .10 sur 12
Qualité de l'air Non disponible.
Flu Activity Non disponible.
SPECI KCQX 280611Z AUTO 00000KT 8SM -RA SCT018 OVC032 02/01 A2994 RMK AO2 P0001 T00220011 $

More Conditions Fewer Conditions

10-Day Weather Forecast

Almanac

Astronomie

Nov. 28, 2014 Lever Coucher
Temps réel
Crépuscule civil
Crépuscule nautique
Crépuscule astronomique
Lune
Durée de lumière visible
Longueur du jour
Tomorrow will be .
, % of the Moon is Illuminated

Extrêmes aujourd'hui

State Highs State Lows

Community

WunderPhotos

Upload Photos

1,774,194 Photos téléchargées !

WunderBlogs® & News

Nearby

Qualité de l'air

  Qualité de l'air Indice de la qualité de l'air Polluant
Not available.

Épaisseur de neige

Station Depth Altitude

Activité sismique

Ville Distance Mag. Time & Date
Minimum magnitude displayed is 2.5.

Températures des eaux côtières

Lieu Température

Stations météo à proximité